Forside
METAR-TAF:

METAR-TAF

Lufthavne :

N'Djamena internationale lufthavn

N'Djamena, Tchad

Breddekreds: 12-08N, længdekreds: 015-02E, højde: 295 m

Aktuelle vejr

Denne rapport blev lavet for 50 minutter siden, kl. 12:00 UTC
Vind 6 kt fra varierende retninger
Temperatur 35°C
Fugtighed 42%
Tryk 1013 hPa
Sigt 10 km eller mere
Spredte skyer i en højde af 4000 ft

METAR: FTTJ 221200Z VRB06KT 9999 SCT040 35/20 Q1013 NOSIG

Tid: 13:50 (12:50 UTC)

Vejrudsigter

Denne rapport blev lavet for 7 timer og 50 minutter siden, kl. 05:00 UTC
Foreløbig gælder fra 22 på 06 UTC til 23 på 12 UTC
Vind 6 kt fra vestsydvest
Sigt 10 km eller mere
Nogle få skyer i en højde af 4000 ft
Sandsynlighed 30% :
Midlertidig
fra 22 på 10 UTC til 22 på 16 UTC
Sigt: 4000 m
tordenbyger, regn
Midlertidig
fra 22 på 20 UTC til 23 på 02 UTC
Vind 15 kt fra varierende retninger med vindstød på up til 30 kt
Sigt: 3000 m
tordenbyger, regn

TAF: FTTJ 220500Z 2206/2312 25006KT 9999 FEW040 PROB30 TEMPO 2210/2216 4000 TSRA TEMPO 2220/2302 VRB15G30KT 3000 TSRA

Vejrobservationer og prognoser fra mere end 4000 lufthavne (METAR og TAF).

De gule og røde prikker repræsenterer de meteorologiske stationer.

Flyt musen over at se navnet på stationen.

Så klik over at se vejr observationer og prognoser.

At skifte det kort: Klik på de grønne knapper med et sort kors for at zoome ind; på den grønne knap med en bindestreg for at zoome ud; eller på de grønne pile for tilstødende kort.


METAR-TAF: